Terminal Aerodrome Forecast
Issued by NWS

Home | Current Version | Previous Version | Graphics & Text | Print | Product List | Glossary On
Versions: 1 2 3 4 5 6 7 8 9 10 11 12 13 14 15 16 17 18 19 20
000
FTUS43 KTOP 140520
TAFMHK
TAF
KMHK 140520Z 1406/1506 17006KT P6SM SCT050 BKN200
     FM141000 19003KT 6SM BR BKN022
     FM141400 19009KT P6SM BKN045=

USA.gov is the U.S. government's official web portal to all federal, state and local government web resources and services.